createdAt,value
2022-11-29T00:01:04.383Z,14.90
2022-11-29T00:05:06.628Z,14.80
2022-11-29T00:09:11.907Z,14.80
2022-11-29T00:13:14.087Z,14.80
2022-11-29T00:17:15.846Z,14.80
2022-11-29T00:21:17.495Z,14.80
2022-11-29T00:25:19.135Z,14.80
2022-11-29T00:29:20.833Z,14.80
2022-11-29T00:33:22.454Z,14.80
2022-11-29T00:37:24.107Z,14.90
2022-11-29T00:41:25.971Z,14.80
2022-11-29T00:45:28.082Z,14.80
2022-11-29T00:49:29.672Z,14.80
2022-11-29T00:53:31.976Z,14.80
2022-11-29T00:57:33.601Z,14.80
2022-11-29T01:01:35.317Z,14.80
2022-11-29T01:05:37.092Z,14.80
2022-11-29T01:09:38.730Z,14.80
2022-11-29T01:13:41.294Z,14.80
2022-11-29T01:17:43.232Z,14.80
2022-11-29T01:21:44.922Z,14.80
2022-11-29T01:25:46.574Z,14.80
2022-11-29T01:29:48.294Z,14.80
2022-11-29T01:33:54.797Z,14.80
2022-11-29T01:37:56.443Z,14.80
2022-11-29T01:41:58.191Z,14.80
2022-11-29T01:45:59.904Z,14.80
2022-11-29T01:50:03.401Z,14.80
2022-11-29T01:54:06.832Z,14.80
2022-11-29T01:58:09.098Z,14.80
2022-11-29T02:02:14.675Z,14.80
2022-11-29T02:06:16.509Z,14.80
2022-11-29T02:10:18.445Z,14.80
2022-11-29T02:14:31.751Z,14.80
2022-11-29T02:18:52.920Z,14.80
2022-11-29T02:23:16.130Z,14.80
2022-11-29T02:27:26.839Z,14.80
2022-11-29T02:31:37.786Z,14.80
2022-11-29T02:36:04.798Z,14.80
2022-11-29T02:40:34.921Z,14.80
2022-11-29T02:44:51.885Z,14.80
2022-11-29T02:49:07.309Z,14.80
2022-11-29T02:53:11.944Z,14.80
2022-11-29T02:57:37.652Z,14.80
2022-11-29T03:01:59.193Z,14.80
2022-11-29T03:06:12.202Z,14.80
2022-11-29T03:10:39.317Z,14.80
2022-11-29T03:15:01.991Z,14.80
2022-11-29T03:19:15.643Z,14.80
2022-11-29T03:23:34.209Z,14.80
2022-11-29T03:27:47.583Z,14.80
2022-11-29T03:31:58.117Z,14.80
2022-11-29T03:36:21.538Z,14.80
2022-11-29T03:40:31.925Z,14.80
2022-11-29T03:44:45.370Z,14.80
2022-11-29T03:48:56.235Z,14.80
2022-11-29T03:53:23.692Z,14.80
2022-11-29T03:57:34.213Z,14.80
2022-11-29T04:01:44.907Z,14.80
2022-11-29T04:06:07.232Z,14.80
2022-11-29T04:10:53.333Z,14.80
2022-11-29T04:15:15.851Z,14.80
2022-11-29T04:20:00.215Z,14.80
2022-11-29T04:24:38.993Z,14.80
2022-11-29T04:29:17.516Z,14.80
2022-11-29T04:33:22.137Z,14.80
2022-11-29T04:37:35.272Z,14.80
2022-11-29T04:42:01.392Z,14.80
2022-11-29T04:46:36.136Z,14.80
2022-11-29T04:50:52.771Z,14.80
2022-11-29T04:55:26.379Z,14.80
2022-11-29T04:59:51.895Z,14.80
2022-11-29T05:04:16.830Z,14.80
2022-11-29T05:08:42.195Z,14.80
2022-11-29T05:13:20.733Z,14.80
2022-11-29T05:17:55.734Z,14.80
2022-11-29T05:22:26.001Z,14.80
2022-11-29T05:26:53.592Z,14.80
2022-11-29T05:31:19.668Z,14.80
2022-11-29T05:35:50.379Z,14.80
2022-11-29T05:40:06.705Z,14.80
2022-11-29T05:44:12.018Z,14.80
2022-11-29T05:48:37.660Z,14.80
2022-11-29T05:52:54.197Z,14.80
2022-11-29T05:57:20.669Z,14.80
2022-11-29T06:01:24.508Z,14.80
2022-11-29T06:05:49.779Z,14.80
2022-11-29T06:10:01.852Z,14.80
2022-11-29T06:14:24.228Z,14.80
2022-11-29T06:18:46.442Z,14.80
2022-11-29T06:23:12.719Z,14.80
2022-11-29T06:27:36.393Z,14.80
2022-11-29T06:31:44.408Z,14.80
2022-11-29T06:36:13.256Z,14.80
2022-11-29T06:40:16.004Z,14.80
2022-11-29T06:44:18.025Z,14.80
2022-11-29T06:48:25.470Z,14.80
2022-11-29T06:52:49.639Z,14.80
2022-11-29T06:57:04.706Z,14.80
2022-11-29T07:01:32.221Z,14.80
2022-11-29T07:05:35.477Z,14.80
2022-11-29T07:09:37.223Z,14.80
2022-11-29T07:13:39.155Z,14.80
2022-11-29T07:17:59.079Z,14.80
2022-11-29T07:22:36.654Z,14.80
2022-11-29T07:26:59.803Z,14.80
2022-11-29T07:31:27.376Z,14.80
2022-11-29T07:35:50.501Z,14.80
2022-11-29T07:39:59.098Z,14.80
2022-11-29T07:44:32.178Z,14.80
2022-11-29T07:48:33.849Z,14.80
2022-11-29T07:52:35.636Z,14.80
2022-11-29T07:56:37.270Z,14.80
2022-11-29T08:00:39.720Z,14.80
2022-11-29T08:04:45.158Z,14.80
2022-11-29T08:08:47.030Z,14.80
2022-11-29T08:12:50.801Z,14.80
2022-11-29T08:16:52.461Z,14.80
2022-11-29T08:20:54.085Z,14.80
2022-11-29T08:24:55.849Z,14.80
2022-11-29T08:28:57.682Z,14.80
2022-11-29T08:32:59.434Z,14.80
2022-11-29T08:37:01.429Z,14.80
2022-11-29T08:41:04.741Z,14.80
2022-11-29T08:45:07.514Z,14.80
2022-11-29T08:49:09.106Z,14.80
2022-11-29T08:53:29.327Z,14.80
2022-11-29T08:57:39.990Z,14.80
2022-11-29T09:01:43.102Z,14.80
2022-11-29T09:05:44.929Z,14.80
2022-11-29T09:09:46.630Z,14.80
2022-11-29T09:13:50.920Z,14.80
2022-11-29T09:17:52.544Z,14.80
2022-11-29T09:21:54.861Z,14.80
2022-11-29T09:25:56.456Z,14.80
2022-11-29T09:29:58.040Z,14.80
2022-11-29T09:34:00.540Z,14.80
2022-11-29T09:38:02.145Z,14.80
2022-11-29T09:42:20.430Z,14.80
2022-11-29T09:46:22.071Z,14.80
2022-11-29T09:50:42.859Z,14.80
2022-11-29T09:54:44.675Z,14.80
2022-11-29T09:58:58.859Z,14.80
2022-11-29T10:03:19.700Z,14.80
2022-11-29T10:07:28.038Z,14.80
2022-11-29T10:11:41.167Z,14.90
2022-11-29T10:15:45.700Z,14.90
2022-11-29T10:19:52.888Z,14.90
2022-11-29T10:24:02.645Z,14.90
2022-11-29T10:28:06.650Z,14.90
2022-11-29T10:32:16.166Z,14.90
2022-11-29T10:36:40.421Z,14.90
2022-11-29T10:40:46.833Z,14.90
2022-11-29T10:44:48.436Z,14.90
2022-11-29T10:48:50.098Z,15.00
2022-11-29T10:52:58.585Z,15.10
2022-11-29T10:57:02.672Z,15.20
2022-11-29T11:01:07.373Z,15.20
2022-11-29T11:05:18.492Z,15.30
2022-11-29T11:09:35.617Z,15.30
2022-11-29T11:13:37.887Z,15.40
2022-11-29T11:17:42.138Z,15.40
2022-11-29T11:21:44.312Z,15.50
2022-11-29T11:25:50.001Z,15.50
2022-11-29T11:29:52.524Z,15.50
2022-11-29T11:33:54.352Z,15.50
2022-11-29T11:37:57.452Z,15.50
2022-11-29T11:42:17.967Z,15.50
2022-11-29T11:46:20.071Z,15.50
2022-11-29T11:50:36.036Z,15.50
2022-11-29T11:54:55.487Z,15.50
2022-11-29T11:58:58.002Z,15.50
2022-11-29T12:03:00.711Z,15.50
2022-11-29T12:07:05.607Z,15.50
2022-11-29T12:11:11.767Z,15.50
2022-11-29T12:15:22.488Z,15.50
2022-11-29T12:19:34.634Z,15.50
2022-11-29T12:23:49.068Z,15.50
2022-11-29T12:27:51.190Z,15.50
2022-11-29T12:32:29.256Z,15.50
2022-11-29T12:36:44.636Z,15.50
2022-11-29T12:41:06.014Z,15.50
2022-11-29T12:45:26.631Z,15.50
2022-11-29T12:49:43.424Z,15.50
2022-11-29T12:54:09.488Z,15.50
2022-11-29T12:58:26.146Z,15.50
2022-11-29T13:02:55.054Z,15.50
2022-11-29T13:07:15.973Z,15.50
2022-11-29T13:11:34.952Z,15.50
2022-11-29T13:15:46.481Z,15.50
2022-11-29T13:19:56.743Z,15.50
2022-11-29T13:24:09.171Z,15.50
2022-11-29T13:28:30.378Z,15.50
2022-11-29T13:33:05.849Z,15.50
2022-11-29T13:37:38.226Z,15.50
2022-11-29T13:42:07.439Z,15.50
2022-11-29T13:46:30.120Z,15.50
2022-11-29T13:50:41.166Z,15.50
2022-11-29T13:54:42.908Z,15.50
2022-11-29T13:58:44.705Z,15.50
2022-11-29T14:02:46.461Z,15.50
2022-11-29T14:06:49.539Z,15.50
2022-11-29T14:10:53.665Z,15.50
2022-11-29T14:15:16.377Z,15.50
2022-11-29T14:19:34.473Z,15.60
2022-11-29T14:23:43.781Z,15.60
2022-11-29T14:27:53.121Z,15.50
2022-11-29T14:31:55.489Z,15.50
2022-11-29T14:36:07.526Z,15.60
2022-11-29T14:40:46.691Z,15.60
2022-11-29T14:44:50.849Z,15.60
2022-11-29T14:48:55.180Z,15.60
2022-11-29T14:52:57.017Z,15.60
2022-11-29T14:57:18.629Z,15.60
2022-11-29T15:01:21.303Z,15.50
2022-11-29T15:05:31.941Z,15.60
2022-11-29T15:09:34.882Z,15.50
2022-11-29T15:13:45.317Z,15.60
2022-11-29T15:18:00.897Z,15.50
2022-11-29T15:22:19.115Z,15.50
2022-11-29T15:26:21.574Z,15.50
2022-11-29T15:30:33.201Z,15.50
2022-11-29T15:34:37.873Z,15.50
2022-11-29T15:38:45.410Z,15.40
2022-11-29T15:42:47.193Z,15.40
2022-11-29T15:46:48.883Z,15.40
2022-11-29T15:51:11.346Z,15.40
2022-11-29T15:55:14.281Z,15.40
2022-11-29T15:59:40.832Z,15.40
2022-11-29T16:03:45.435Z,15.40
2022-11-29T16:07:52.441Z,15.40
2022-11-29T16:11:54.332Z,15.40
2022-11-29T16:16:19.472Z,15.40
2022-11-29T16:20:24.392Z,15.30
2022-11-29T16:24:26.461Z,15.40
2022-11-29T16:28:33.488Z,15.40
2022-11-29T16:32:42.825Z,15.40
2022-11-29T16:36:45.811Z,15.40
2022-11-29T16:41:06.349Z,15.40
2022-11-29T16:45:34.097Z,15.40
2022-11-29T16:49:36.579Z,15.40
2022-11-29T16:53:43.596Z,15.30
2022-11-29T16:57:47.172Z,15.30
2022-11-29T17:01:49.177Z,15.40
2022-11-29T17:05:51.311Z,15.40
2022-11-29T17:09:53.462Z,15.40
2022-11-29T17:13:55.087Z,15.40
2022-11-29T17:17:56.810Z,15.40
2022-11-29T17:21:58.971Z,15.40
2022-11-29T17:26:01.860Z,15.50
2022-11-29T17:30:05.709Z,15.50
2022-11-29T17:34:07.381Z,15.50
2022-11-29T17:38:08.990Z,15.50
2022-11-29T17:42:12.259Z,15.50
2022-11-29T17:46:26.311Z,15.50
2022-11-29T17:50:27.919Z,15.50
2022-11-29T17:54:32.894Z,15.50
2022-11-29T17:58:35.981Z,15.50
2022-11-29T18:02:37.768Z,15.50
2022-11-29T18:06:40.466Z,15.50
2022-11-29T18:10:42.089Z,15.60
2022-11-29T18:14:43.820Z,15.60
2022-11-29T18:18:46.033Z,15.50
2022-11-29T18:22:47.917Z,15.50
2022-11-29T18:26:49.572Z,15.50
2022-11-29T18:30:51.293Z,15.50
2022-11-29T18:34:52.912Z,15.50
2022-11-29T18:38:59.754Z,15.50
2022-11-29T18:43:01.397Z,15.50
2022-11-29T18:47:03.886Z,15.50
2022-11-29T18:51:11.315Z,15.50
2022-11-29T18:55:12.939Z,15.50
2022-11-29T18:59:17.140Z,15.50
2022-11-29T19:03:19.179Z,15.50
2022-11-29T19:07:20.859Z,15.60
2022-11-29T19:11:24.369Z,15.60
2022-11-29T19:15:26.198Z,15.50
2022-11-29T19:19:28.221Z,15.60
2022-11-29T19:23:29.862Z,15.60
2022-11-29T19:27:31.912Z,15.60
2022-11-29T19:31:33.529Z,15.60
2022-11-29T19:35:35.346Z,15.60
2022-11-29T19:39:38.059Z,15.60
2022-11-29T19:43:39.911Z,15.60
2022-11-29T19:47:41.614Z,15.60
2022-11-29T19:51:43.363Z,15.60
2022-11-29T19:55:45.096Z,15.60
2022-11-29T19:59:47.309Z,15.60
2022-11-29T20:03:49.911Z,15.60
2022-11-29T20:07:51.589Z,15.60
2022-11-29T20:11:53.280Z,15.60
2022-11-29T20:15:54.986Z,15.60
2022-11-29T20:19:56.789Z,15.60
2022-11-29T20:24:04.679Z,15.60
2022-11-29T20:28:06.811Z,15.60
2022-11-29T20:32:08.546Z,15.50
2022-11-29T20:36:31.417Z,15.60
2022-11-29T20:41:02.309Z,15.50
2022-11-29T20:45:07.819Z,15.60
2022-11-29T20:49:12.182Z,15.60
2022-11-29T20:53:31.769Z,15.60
2022-11-29T20:57:33.402Z,15.50
2022-11-29T21:01:35.276Z,15.60
2022-11-29T21:05:37.882Z,15.60
2022-11-29T21:09:39.484Z,15.60
2022-11-29T21:13:41.526Z,15.50
2022-11-29T21:17:44.123Z,15.60
2022-11-29T21:22:05.124Z,15.60
2022-11-29T21:26:20.724Z,15.60
2022-11-29T21:30:24.851Z,15.70
2022-11-29T21:34:26.457Z,15.60
2022-11-29T21:38:29.309Z,15.60
2022-11-29T21:42:30.923Z,15.50
2022-11-29T21:46:32.564Z,15.40
2022-11-29T21:50:34.174Z,15.40
2022-11-29T21:54:35.761Z,15.30
2022-11-29T21:58:39.289Z,15.30
2022-11-29T22:02:41.058Z,15.20
2022-11-29T22:06:42.932Z,15.20
2022-11-29T22:10:44.512Z,15.20
2022-11-29T22:14:46.449Z,15.20
2022-11-29T22:18:48.307Z,15.10
2022-11-29T22:22:51.102Z,15.10
2022-11-29T22:26:55.753Z,15.10
2022-11-29T22:31:11.551Z,15.10
2022-11-29T22:35:13.217Z,15.10
2022-11-29T22:39:15.007Z,15.10
2022-11-29T22:43:16.645Z,15.10
2022-11-29T22:47:18.332Z,15.10
2022-11-29T22:51:41.248Z,15.00
2022-11-29T22:55:43.441Z,15.00
2022-11-29T22:59:45.049Z,15.00
2022-11-29T23:03:49.130Z,15.00
2022-11-29T23:07:55.091Z,15.00
2022-11-29T23:11:56.771Z,15.00
2022-11-29T23:15:58.390Z,15.00
2022-11-29T23:20:00.098Z,15.00
2022-11-29T23:24:02.269Z,15.00
2022-11-29T23:28:03.951Z,15.00
2022-11-29T23:32:05.597Z,15.00
2022-11-29T23:36:09.170Z,15.00
2022-11-29T23:40:11.140Z,15.00
2022-11-29T23:44:12.803Z,15.00
2022-11-29T23:48:14.700Z,15.00
2022-11-29T23:52:16.335Z,15.00
2022-11-29T23:56:18.056Z,14.90
